Colorado Star — 9HA2189 — position and weather

sailwx.info

Track history (hours):
 
Tides and Currents Weather Stations Pressure Air Temp Water Temp Dewpoint Dewpoint Depression Visibility Wind Speed Wind Dir Waves Ship Positions

Colorado Star

Last reported at 2015-Sep-03 12:34 UTC. Time now 2015-Sep-03 12:58 UTC.
Position N 55°26' E 012°39'.

Length 128 m; draft 6.2 m.

Type: Ship. MMSI: 248127000.

Date/timePositionNaut miles runAvg speedWind from/ knotsBaromVisibWave heightAir tempDewpointWater temp
2015-Sep-03 12:34N 55°26' E 012°39'1111.4
2015-Sep-03 11:33N 55°38' E 012°42'1211.6
2015-Sep-03 10:33N 55°49' E 012°42'1111.4
2015-Sep-03 09:33N 56°00' E 012°40'1110.8
2015-Sep-03 08:33N 56°08' E 012°27'1212.0
2015-Sep-03 07:33N 56°15' E 012°09'2412.0
2015-Sep-03 05:33N 56°38' E 011°56'1212.0
2015-Sep-03 04:33N 56°50' E 011°50'1312.6
2015-Sep-03 03:33N 57°01' E 011°42'1211.8
2015-Sep-03 02:33N 57°13' E 011°35'1111.3
2015-Sep-03 01:33N 57°23' E 011°28'1211.6
2015-Sep-03 00:33N 57°33' E 011°15'1211.8
2015-Sep-02 23:34N 57°41' E 010°59'1212.1
2015-Sep-02 22:33N 57°47' E 010°40'1514.4
2015-Sep-02 21:30N 57°44' E 010°12'17312.9
2015-Sep-02 08:03N 55°37' E 006°39'612.5
2015-Sep-02 07:33N 55°32' E 006°33'8612.3
2015-Sep-02 00:34N 54°17' E 005°19'1212.4
2015-Sep-01 23:33N 54°06' E 005°09'1212.3
2015-Sep-01 22:33N 53°55' E 005°01'1212.0
2015-Sep-01 21:33N 53°43' E 004°55'1212.3
2015-Sep-01 20:33N 53°32' E 004°47'1312.8
2015-Sep-01 19:33N 53°20' E 004°40'1413.9
2015-Sep-01 18:33N 53°08' E 004°28'1413.8
2015-Sep-01 17:33N 52°56' E 004°18'1413.8
2015-Sep-01 16:34N 52°44' E 004°07'1413.6
2015-Sep-01 15:33N 52°32' E 003°56'1312.8
2015-Sep-01 14:33N 52°19' E 003°52'1211.9
2015-Sep-01 13:33N 52°07' E 003°55'7 7.2
2015-Sep-01 12:34N 52°01' E 003°60'1212.4
2015-Sep-01 11:34N 51°54' E 004°17'2 1.6
2015-Sep-01 10:32N 51°53' E 004°18'0 0.0
2015-Sep-01 09:32N 51°53' E 004°18'0 0.0
2015-Sep-01 08:26N 51°53' E 004°18'0 0.0
2015-Sep-01 07:33N 51°53' E 004°18'0 0.0
2015-Sep-01 06:32N 51°53' E 004°18'0 0.0
2015-Sep-01 05:23N 51°53' E 004°18'1 1.2
2015-Sep-01 04:34N 51°53' E 004°19'2 0.1
2015-Aug-31 15:18N 51°54' E 004°21'0 0.0
2015-Aug-31 14:33N 51°54' E 004°21'0 0.0
2015-Aug-31 13:33N 51°54' E 004°21'0 0.0
2015-Aug-31 12:33N 51°54' E 004°21'0 0.0
2015-Aug-31 11:33N 51°54' E 004°21'0 0.0
2015-Aug-31 10:33N 51°54' E 004°21'0 0.0
2015-Aug-31 09:33N 51°54' E 004°21'6 5.5
2015-Aug-31 08:33N 51°56' E 004°13'10 9.7
2015-Aug-31 07:33N 52°00' E 003°59'1110.7
2015-Aug-31 06:33N 51°58' E 003°42'1211.5
2015-Aug-31 05:32N 51°55' E 003°23'4112.2
2015-Aug-31 02:10N 51°36' E 002°24'813.4
2015-Aug-31 01:33N 51°29' E 002°16'1313.0
2015-Aug-31 00:33N 51°18' E 002°07'1313.2
2015-Aug-30 23:34N 51°09' E 001°51'1313.3
2015-Aug-30 22:33N 50°60' E 001°36'1211.3
2015-Aug-30 21:31N 50°50' E 001°27'78 9.3
2015-Aug-30 13:07N 49°58' W 000°05'611.3
2015-Aug-30 12:34N 49°51' W 000°07'1111.3
2015-Aug-30 11:33N 49°40' W 000°10'1010.4
2015-Aug-30 10:33N 49°30' W 000°08'1110.8
2015-Aug-30 09:34N 49°26' E 000°08'1010.2
2015-Aug-30 08:34N 49°27' E 000°23'6 6.0
2015-Aug-30 07:34N 49°28' E 000°32'0 0.1
2015-Aug-30 06:33N 49°28' E 000°32'0 0.0
2015-Aug-30 05:33N 49°28' E 000°32'0 0.0
2015-Aug-30 04:33N 49°28' E 000°32'0 0.0
2015-Aug-30 03:33N 49°28' E 000°32'0 0.0
2015-Aug-30 02:30N 49°28' E 000°32'0 0.0
2015-Aug-30 01:24N 49°28' E 000°32'0 0.0
2015-Aug-30 00:27N 49°28' E 000°32'0 0.0
2015-Aug-29 23:33N 49°28' E 000°32'0 0.0
2015-Aug-29 22:33N 49°28' E 000°32'0 0.0
2015-Aug-29 21:33N 49°28' E 000°32'0 0.0
2015-Aug-29 20:33N 49°28' E 000°32'0 0.0
2015-Aug-29 19:33N 49°28' E 000°32'0 0.0
2015-Aug-29 18:34N 49°28' E 000°32'0 0.0
2015-Aug-29 17:33N 49°28' E 000°32'0 0.0
2015-Aug-29 16:34N 49°28' E 000°32'0 0.0
2015-Aug-29 15:33N 49°28' E 000°32'0 0.0
2015-Aug-29 14:33N 49°28' E 000°32'0 0.0
2015-Aug-29 13:34N 49°28' E 000°32'0 0.0
2015-Aug-29 12:33N 49°28' E 000°32'0 0.0
2015-Aug-29 11:34N 49°28' E 000°32'0 0.0
2015-Aug-29 10:34N 49°28' E 000°32'0 0.0
2015-Aug-29 09:34N 49°28' E 000°32'0 0.0
2015-Aug-29 08:33N 49°28' E 000°32'0 0.0
2015-Aug-29 07:33N 49°28' E 000°32'0 0.0
2015-Aug-29 06:34N 49°28' E 000°32'0 0.0
2015-Aug-29 05:34N 49°28' E 000°32'0 0.0
2015-Aug-29 04:34N 49°28' E 000°32'0 0.0
2015-Aug-29 03:34N 49°28' E 000°32'0 0.0
2015-Aug-29 02:33N 49°28' E 000°32'0 0.0
2015-Aug-29 01:33N 49°28' E 000°32'0 0.0
2015-Aug-29 00:33N 49°28' E 000°32'0 0.0
2015-Aug-28 23:33N 49°28' E 000°32'0 0.0
2015-Aug-28 22:34N 49°28' E 000°32'1 0.6
2015-Aug-28 21:33N 49°29' E 000°32'1111.4
2015-Aug-28 20:34N 49°26' E 000°15'1212.3
2015-Aug-28 19:34N 49°29' W 000°04'2 1.6
2015-Aug-28 18:32N 49°28' W 000°06'0 0.1
2015-Aug-28 17:32N 49°28' W 000°06'0 0.1
2015-Aug-28 16:32N 49°28' W 000°06'0 0.0
2015-Aug-28 15:32N 49°28' W 000°06'0 0.0
2015-Aug-28 14:32N 49°28' W 000°06'0 0.0
2015-Aug-28 13:32N 49°28' W 000°06'0 0.0
2015-Aug-28 12:32N 49°28' W 000°06'0 0.1
2015-Aug-28 11:32N 49°28' W 000°06'0 0.1
2015-Aug-28 10:32N 49°28' W 000°06'0 0.0
2015-Aug-28 09:32N 49°28' W 000°06'0 0.0
2015-Aug-28 08:32N 49°28' W 000°06'0 0.0
2015-Aug-28 07:32N 49°28' W 000°06'0 0.0
2015-Aug-28 06:32N 49°28' W 000°06'0 0.0
2015-Aug-28 05:32N 49°28' W 000°06'0 0.0
2015-Aug-28 04:32N 49°28' W 000°06'0 0.1
2015-Aug-28 03:32N 49°28' W 000°06'0 0.0
2015-Aug-28 02:32N 49°28' W 000°06'0 0.0
2015-Aug-28 01:32N 49°28' W 000°06'0 0.0
2015-Aug-28 00:32N 49°28' W 000°06'0 0.1
2015-Aug-27 23:32N 49°28' W 000°06'0 0.1
2015-Aug-27 22:32N 49°28' W 000°06'0 0.0
2015-Aug-27 21:32N 49°28' W 000°06'0 0.0
2015-Aug-27 20:32N 49°28' W 000°06'0 0.0
2015-Aug-27 19:32N 49°28' W 000°06'0 0.0
2015-Aug-27 18:32N 49°28' W 000°06'0 0.0
2015-Aug-27 17:32N 49°28' W 000°06'0 0.0
2015-Aug-27 16:32N 49°28' W 000°06'0 0.0
2015-Aug-27 15:32N 49°28' W 000°06'0 0.1
2015-Aug-27 14:32N 49°28' W 000°06'0 0.0
2015-Aug-27 13:32N 49°28' W 000°06'0 0.0
2015-Aug-27 12:32N 49°28' W 000°06'0 0.1
2015-Aug-27 11:32N 49°28' W 000°06'0 0.1
2015-Aug-27 10:32N 49°28' W 000°06'0 0.0
2015-Aug-27 09:32N 49°28' W 000°06'0 0.0
2015-Aug-27 08:32N 49°28' W 000°06'0 0.0
2015-Aug-27 07:32N 49°28' W 000°06'0 0.0
2015-Aug-27 06:32N 49°28' W 000°06'0 0.0
2015-Aug-27 05:32N 49°28' W 000°06'0 0.0
2015-Aug-27 04:32N 49°28' W 000°06'0 0.0
2015-Aug-27 03:32N 49°28' W 000°06'0 0.0
2015-Aug-27 02:32N 49°28' W 000°06'0 0.0
2015-Aug-27 01:32N 49°28' W 000°06'0 0.0
2015-Aug-27 00:32N 49°28' W 000°06'0 0.0
2015-Aug-26 23:32N 49°28' W 000°06'0 0.0
2015-Aug-26 22:32N 49°28' W 000°06'0 0.1
2015-Aug-26 21:32N 49°28' W 000°06'0 0.0
2015-Aug-26 20:32N 49°28' W 000°06'0 0.0
2015-Aug-26 19:32N 49°28' W 000°06'0 0.0
2015-Aug-26 18:32N 49°28' W 000°06'0 0.0
2015-Aug-26 17:32N 49°28' W 000°06'0 0.0
2015-Aug-26 16:32N 49°28' W 000°06'0 0.0
2015-Aug-26 15:32N 49°28' W 000°06'0 0.0
2015-Aug-26 14:32N 49°28' W 000°06'0 0.1
2015-Aug-26 13:32N 49°28' W 000°06'0 0.0
2015-Aug-26 12:32N 49°28' W 000°06'0 0.0
2015-Aug-26 11:32N 49°28' W 000°06'0 0.0
2015-Aug-26 10:32N 49°28' W 000°06'0 0.0
2015-Aug-26 09:32N 49°28' W 000°06'0 0.0
2015-Aug-26 08:32N 49°28' W 000°06'0 0.0
2015-Aug-26 07:32N 49°28' W 000°06'0 0.0
2015-Aug-26 06:32N 49°28' W 000°06'0 0.0
2015-Aug-26 05:32N 49°28' W 000°06'0 0.0
2015-Aug-26 04:32N 49°28' W 000°06'0 0.0
2015-Aug-26 03:32N 49°28' W 000°06'0 0.0
2015-Aug-26 02:32N 49°28' W 000°06'0 0.0
2015-Aug-26 01:32N 49°28' W 000°06'0 0.0
2015-Aug-26 00:32N 49°28' W 000°06'0 0.0
2015-Aug-25 23:32N 49°28' W 000°06'0 0.0
2015-Aug-25 22:32N 49°28' W 000°06'0 0.0
2015-Aug-25 21:32N 49°28' W 000°06'0 0.0
2015-Aug-25 20:32N 49°28' W 000°06'0 0.0
2015-Aug-25 19:32N 49°28' W 000°06'0 0.0
2015-Aug-25 18:32N 49°28' W 000°06'0 0.0
2015-Aug-25 17:32N 49°28' W 000°06'0 0.0
2015-Aug-25 16:32N 49°28' W 000°06'0 0.0
2015-Aug-25 15:32N 49°28' W 000°06'0 0.0
2015-Aug-25 14:32N 49°28' W 000°06'0 0.0
2015-Aug-25 13:32N 49°28' W 000°06'0 0.0
2015-Aug-25 12:32N 49°28' W 000°06'0 0.0
2015-Aug-25 11:32N 49°28' W 000°06'0 0.0
2015-Aug-25 10:32N 49°28' W 000°06'0 0.0
2015-Aug-25 09:32N 49°28' W 000°06'0 0.0
2015-Aug-25 08:32N 49°28' W 000°06'0 0.0
2015-Aug-25 07:32N 49°28' W 000°06'0 0.0
2015-Aug-25 06:32N 49°28' W 000°06'0 0.0
2015-Aug-25 05:32N 49°28' W 000°06'0 0.0
2015-Aug-25 04:32N 49°28' W 000°06'0 0.0
2015-Aug-25 03:32N 49°28' W 000°06'0 0.0
2015-Aug-25 02:32N 49°28' W 000°06'0 0.0
2015-Aug-25 01:32N 49°28' W 000°06'0 0.0
2015-Aug-25 00:32N 49°28' W 000°06'0 0.0
2015-Aug-24 23:29N 49°28' W 000°06'0 0.0
2015-Aug-24 22:32N 49°28' W 000°06'0 0.0
2015-Aug-24 21:32N 49°28' W 000°06'0 0.0
2015-Aug-24 20:32N 49°28' W 000°06'0 0.0
2015-Aug-24 19:32N 49°28' W 000°06'0 0.0
2015-Aug-24 18:32N 49°28' W 000°06'1 1.3
2015-Aug-24 17:33N 49°29' W 000°06'1211.5
2015-Aug-24 16:33N 49°41' W 000°09'1212.2
2015-Aug-24 15:33N 49°53' W 000°09'  
Track history (hours):
 
Tides and Currents Weather Stations Pressure Air Temp Water Temp Dewpoint Dewpoint Depression Visibility Wind Speed Wind Dir Waves Ship Positions

Colorado Star

Last reported at 2015-Sep-03 12:34 UTC. Time now 2015-Sep-03 12:58 UTC.
Position N 55°26' E 012°39'.

Length 128 m; draft 6.2 m.

Type: Ship. MMSI: 248127000.

Date/timePositionNaut miles runAvg speedWind from/ knotsBaromVisibWave heightAir tempDewpointWater temp
2015-Sep-03 12:34N 55°26' E 012°39'1111.4
2015-Sep-03 11:33N 55°38' E 012°42'1211.6
2015-Sep-03 10:33N 55°49' E 012°42'1111.4
2015-Sep-03 09:33N 56°00' E 012°40'1110.8
2015-Sep-03 08:33N 56°08' E 012°27'1212.0
2015-Sep-03 07:33N 56°15' E 012°09'2412.0
2015-Sep-03 05:33N 56°38' E 011°56'1212.0
2015-Sep-03 04:33N 56°50' E 011°50'1312.6
2015-Sep-03 03:33N 57°01' E 011°42'1211.8
2015-Sep-03 02:33N 57°13' E 011°35'1111.3
2015-Sep-03 01:33N 57°23' E 011°28'1211.6
2015-Sep-03 00:33N 57°33' E 011°15'1211.8
2015-Sep-02 23:34N 57°41' E 010°59'1212.1
2015-Sep-02 22:33N 57°47' E 010°40'1514.4
2015-Sep-02 21:30N 57°44' E 010°12'17312.9
2015-Sep-02 08:03N 55°37' E 006°39'612.5
2015-Sep-02 07:33N 55°32' E 006°33'8612.3
2015-Sep-02 00:34N 54°17' E 005°19'1212.4
2015-Sep-01 23:33N 54°06' E 005°09'1212.3
2015-Sep-01 22:33N 53°55' E 005°01'1212.0
2015-Sep-01 21:33N 53°43' E 004°55'1212.3
2015-Sep-01 20:33N 53°32' E 004°47'1312.8
2015-Sep-01 19:33N 53°20' E 004°40'1413.9
2015-Sep-01 18:33N 53°08' E 004°28'1413.8
2015-Sep-01 17:33N 52°56' E 004°18'1413.8
2015-Sep-01 16:34N 52°44' E 004°07'1413.6
2015-Sep-01 15:33N 52°32' E 003°56'1312.8
2015-Sep-01 14:33N 52°19' E 003°52'1211.9
2015-Sep-01 13:33N 52°07' E 003°55'7 7.2
2015-Sep-01 12:34N 52°01' E 003°60'1212.4
2015-Sep-01 11:34N 51°54' E 004°17'2 1.6
2015-Sep-01 10:32N 51°53' E 004°18'0 0.0
2015-Sep-01 09:32N 51°53' E 004°18'0 0.0
2015-Sep-01 08:26N 51°53' E 004°18'0 0.0
2015-Sep-01 07:33N 51°53' E 004°18'0 0.0
2015-Sep-01 06:32N 51°53' E 004°18'0 0.0
2015-Sep-01 05:23N 51°53' E 004°18'1 1.2
2015-Sep-01 04:34N 51°53' E 004°19'2 0.1
2015-Aug-31 15:18N 51°54' E 004°21'0 0.0
2015-Aug-31 14:33N 51°54' E 004°21'0 0.0
2015-Aug-31 13:33N 51°54' E 004°21'0 0.0
2015-Aug-31 12:33N 51°54' E 004°21'0 0.0
2015-Aug-31 11:33N 51°54' E 004°21'0 0.0
2015-Aug-31 10:33N 51°54' E 004°21'0 0.0
2015-Aug-31 09:33N 51°54' E 004°21'6 5.5
2015-Aug-31 08:33N 51°56' E 004°13'10 9.7
2015-Aug-31 07:33N 52°00' E 003°59'1110.7
2015-Aug-31 06:33N 51°58' E 003°42'1211.5
2015-Aug-31 05:32N 51°55' E 003°23'4112.2
2015-Aug-31 02:10N 51°36' E 002°24'813.4
2015-Aug-31 01:33N 51°29' E 002°16'1313.0
2015-Aug-31 00:33N 51°18' E 002°07'1313.2
2015-Aug-30 23:34N 51°09' E 001°51'1313.3
2015-Aug-30 22:33N 50°60' E 001°36'1211.3
2015-Aug-30 21:31N 50°50' E 001°27'78 9.3
2015-Aug-30 13:07N 49°58' W 000°05'611.3
2015-Aug-30 12:34N 49°51' W 000°07'1111.3
2015-Aug-30 11:33N 49°40' W 000°10'1010.4
2015-Aug-30 10:33N 49°30' W 000°08'1110.8
2015-Aug-30 09:34N 49°26' E 000°08'1010.2
2015-Aug-30 08:34N 49°27' E 000°23'6 6.0
2015-Aug-30 07:34N 49°28' E 000°32'0 0.1
2015-Aug-30 06:33N 49°28' E 000°32'0 0.0
2015-Aug-30 05:33N 49°28' E 000°32'0 0.0
2015-Aug-30 04:33N 49°28' E 000°32'0 0.0
2015-Aug-30 03:33N 49°28' E 000°32'0 0.0
2015-Aug-30 02:30N 49°28' E 000°32'0 0.0
2015-Aug-30 01:24N 49°28' E 000°32'0 0.0
2015-Aug-30 00:27N 49°28' E 000°32'0 0.0
2015-Aug-29 23:33N 49°28' E 000°32'0 0.0
2015-Aug-29 22:33N 49°28' E 000°32'0 0.0
2015-Aug-29 21:33N 49°28' E 000°32'0 0.0
2015-Aug-29 20:33N 49°28' E 000°32'0 0.0
2015-Aug-29 19:33N 49°28' E 000°32'0 0.0
2015-Aug-29 18:34N 49°28' E 000°32'0 0.0
2015-Aug-29 17:33N 49°28' E 000°32'0 0.0
2015-Aug-29 16:34N 49°28' E 000°32'0 0.0
2015-Aug-29 15:33N 49°28' E 000°32'0 0.0
2015-Aug-29 14:33N 49°28' E 000°32'0 0.0
2015-Aug-29 13:34N 49°28' E 000°32'0 0.0
2015-Aug-29 12:33N 49°28' E 000°32'0 0.0
2015-Aug-29 11:34N 49°28' E 000°32'0 0.0
2015-Aug-29 10:34N 49°28' E 000°32'0 0.0
2015-Aug-29 09:34N 49°28' E 000°32'0 0.0
2015-Aug-29 08:33N 49°28' E 000°32'0 0.0
2015-Aug-29 07:33N 49°28' E 000°32'0 0.0
2015-Aug-29 06:34N 49°28' E 000°32'0 0.0
2015-Aug-29 05:34N 49°28' E 000°32'0 0.0
2015-Aug-29 04:34N 49°28' E 000°32'0 0.0
2015-Aug-29 03:34N 49°28' E 000°32'0 0.0
2015-Aug-29 02:33N 49°28' E 000°32'0 0.0
2015-Aug-29 01:33N 49°28' E 000°32'0 0.0
2015-Aug-29 00:33N 49°28' E 000°32'0 0.0
2015-Aug-28 23:33N 49°28' E 000°32'0 0.0
2015-Aug-28 22:34N 49°28' E 000°32'1 0.6
2015-Aug-28 21:33N 49°29' E 000°32'1111.4
2015-Aug-28 20:34N 49°26' E 000°15'1212.3
2015-Aug-28 19:34N 49°29' W 000°04'2 1.6
2015-Aug-28 18:32N 49°28' W 000°06'0 0.1
2015-Aug-28 17:32N 49°28' W 000°06'0 0.1
2015-Aug-28 16:32N 49°28' W 000°06'0 0.0
2015-Aug-28 15:32N 49°28' W 000°06'0 0.0
2015-Aug-28 14:32N 49°28' W 000°06'0 0.0
2015-Aug-28 13:32N 49°28' W 000°06'0 0.0
2015-Aug-28 12:32N 49°28' W 000°06'0 0.1
2015-Aug-28 11:32N 49°28' W 000°06'0 0.1
2015-Aug-28 10:32N 49°28' W 000°06'0 0.0
2015-Aug-28 09:32N 49°28' W 000°06'0 0.0
2015-Aug-28 08:32N 49°28' W 000°06'0 0.0
2015-Aug-28 07:32N 49°28' W 000°06'0 0.0
2015-Aug-28 06:32N 49°28' W 000°06'0 0.0
2015-Aug-28 05:32N 49°28' W 000°06'0 0.0
2015-Aug-28 04:32N 49°28' W 000°06'0 0.1
2015-Aug-28 03:32N 49°28' W 000°06'0 0.0
2015-Aug-28 02:32N 49°28' W 000°06'0 0.0
2015-Aug-28 01:32N 49°28' W 000°06'0 0.0
2015-Aug-28 00:32N 49°28' W 000°06'0 0.1
2015-Aug-27 23:32N 49°28' W 000°06'0 0.1
2015-Aug-27 22:32N 49°28' W 000°06'0 0.0
2015-Aug-27 21:32N 49°28' W 000°06'0 0.0
2015-Aug-27 20:32N 49°28' W 000°06'0 0.0
2015-Aug-27 19:32N 49°28' W 000°06'0 0.0
2015-Aug-27 18:32N 49°28' W 000°06'0 0.0
2015-Aug-27 17:32N 49°28' W 000°06'0 0.0
2015-Aug-27 16:32N 49°28' W 000°06'0 0.0
2015-Aug-27 15:32N 49°28' W 000°06'0 0.1
2015-Aug-27 14:32N 49°28' W 000°06'0 0.0
2015-Aug-27 13:32N 49°28' W 000°06'0 0.0
2015-Aug-27 12:32N 49°28' W 000°06'0 0.1
2015-Aug-27 11:32N 49°28' W 000°06'0 0.1
2015-Aug-27 10:32N 49°28' W 000°06'0 0.0
2015-Aug-27 09:32N 49°28' W 000°06'0 0.0
2015-Aug-27 08:32N 49°28' W 000°06'0 0.0
2015-Aug-27 07:32N 49°28' W 000°06'0 0.0
2015-Aug-27 06:32N 49°28' W 000°06'0 0.0
2015-Aug-27 05:32N 49°28' W 000°06'0 0.0
2015-Aug-27 04:32N 49°28' W 000°06'0 0.0
2015-Aug-27 03:32N 49°28' W 000°06'0 0.0
2015-Aug-27 02:32N 49°28' W 000°06'0 0.0
2015-Aug-27 01:32N 49°28' W 000°06'0 0.0
2015-Aug-27 00:32N 49°28' W 000°06'0 0.0
2015-Aug-26 23:32N 49°28' W 000°06'0 0.0
2015-Aug-26 22:32N 49°28' W 000°06'0 0.1
2015-Aug-26 21:32N 49°28' W 000°06'0 0.0
2015-Aug-26 20:32N 49°28' W 000°06'0 0.0
2015-Aug-26 19:32N 49°28' W 000°06'0 0.0
2015-Aug-26 18:32N 49°28' W 000°06'0 0.0
2015-Aug-26 17:32N 49°28' W 000°06'0 0.0
2015-Aug-26 16:32N 49°28' W 000°06'0 0.0
2015-Aug-26 15:32N 49°28' W 000°06'0 0.0
2015-Aug-26 14:32N 49°28' W 000°06'0 0.1
2015-Aug-26 13:32N 49°28' W 000°06'0 0.0
2015-Aug-26 12:32N 49°28' W 000°06'0 0.0
2015-Aug-26 11:32N 49°28' W 000°06'0 0.0
2015-Aug-26 10:32N 49°28' W 000°06'0 0.0
2015-Aug-26 09:32N 49°28' W 000°06'0 0.0
2015-Aug-26 08:32N 49°28' W 000°06'0 0.0
2015-Aug-26 07:32N 49°28' W 000°06'0 0.0
2015-Aug-26 06:32N 49°28' W 000°06'0 0.0
2015-Aug-26 05:32N 49°28' W 000°06'0 0.0
2015-Aug-26 04:32N 49°28' W 000°06'0 0.0
2015-Aug-26 03:32N 49°28' W 000°06'0 0.0
2015-Aug-26 02:32N 49°28' W 000°06'0 0.0
2015-Aug-26 01:32N 49°28' W 000°06'0 0.0
2015-Aug-26 00:32N 49°28' W 000°06'0 0.0
2015-Aug-25 23:32N 49°28' W 000°06'0 0.0
2015-Aug-25 22:32N 49°28' W 000°06'0 0.0
2015-Aug-25 21:32N 49°28' W 000°06'0 0.0
2015-Aug-25 20:32N 49°28' W 000°06'0 0.0
2015-Aug-25 19:32N 49°28' W 000°06'0 0.0
2015-Aug-25 18:32N 49°28' W 000°06'0 0.0
2015-Aug-25 17:32N 49°28' W 000°06'0 0.0
2015-Aug-25 16:32N 49°28' W 000°06'0 0.0
2015-Aug-25 15:32N 49°28' W 000°06'0 0.0
2015-Aug-25 14:32N 49°28' W 000°06'0 0.0
2015-Aug-25 13:32N 49°28' W 000°06'0 0.0
2015-Aug-25 12:32N 49°28' W 000°06'0 0.0
2015-Aug-25 11:32N 49°28' W 000°06'0 0.0
2015-Aug-25 10:32N 49°28' W 000°06'0 0.0
2015-Aug-25 09:32N 49°28' W 000°06'0 0.0
2015-Aug-25 08:32N 49°28' W 000°06'0 0.0
2015-Aug-25 07:32N 49°28' W 000°06'0 0.0
2015-Aug-25 06:32N 49°28' W 000°06'0 0.0
2015-Aug-25 05:32N 49°28' W 000°06'0 0.0
2015-Aug-25 04:32N 49°28' W 000°06'0 0.0
2015-Aug-25 03:32N 49°28' W 000°06'0 0.0
2015-Aug-25 02:32N 49°28' W 000°06'0 0.0
2015-Aug-25 01:32N 49°28' W 000°06'0 0.0
2015-Aug-25 00:32N 49°28' W 000°06'0 0.0
2015-Aug-24 23:29N 49°28' W 000°06'0 0.0
2015-Aug-24 22:32N 49°28' W 000°06'0 0.0
2015-Aug-24 21:32N 49°28' W 000°06'0 0.0
2015-Aug-24 20:32N 49°28' W 000°06'0 0.0
2015-Aug-24 19:32N 49°28' W 000°06'0 0.0
2015-Aug-24 18:32N 49°28' W 000°06'1 1.3
2015-Aug-24 17:33N 49°29' W 000°06'1211.5
2015-Aug-24 16:33N 49°41' W 000°09'1212.2
2015-Aug-24 15:33N 49°53' W 000°09'  

Dump ship's entire track history